Time;durP1;ratioP1;P1;durP2;ratioP2;P2;SDS_P1;SDS_P2;PMS_P1;PMS_P2;Temp;Humidity;BMP_temperature;BMP_pressure;BME280_temperature;BME280_humidity;BME280_pressure;Samples;Min_cycle;Max_cycle;Signal;HPM_P1;HPM_P2
2023/08/26 00:00:16;;;;;;;6.30;4.60;;;22.60;99.90;;;;;;5055244;28;20635;-64
2023/08/26 00:02:43;;;;;;;6.88;4.95;;;22.70;99.90;;;;;;5054763;28;20657;-64
2023/08/26 00:05:10;;;;;;;6.45;4.65;;;22.70;99.90;;;;;;5055005;28;20216;-64
2023/08/26 00:07:36;;;;;;;7.65;4.45;;;22.70;99.90;;;;;;5054290;28;20587;-64
2023/08/26 00:10:03;;;;;;;6.47;4.60;;;22.70;99.90;;;;;;5054627;28;20208;-64
2023/08/26 00:12:31;;;;;;;5.35;4.85;;;22.70;99.90;;;;;;5054304;28;20289;-65
2023/08/26 00:14:58;;;;;;;6.32;4.80;;;22.70;99.90;;;;;;5054940;28;20209;-63
2023/08/26 00:17:25;;;;;;;7.57;5.18;;;22.70;99.90;;;;;;5054294;28;20697;-64
2023/08/26 00:19:52;;;;;;;8.25;5.25;;;22.60;99.90;;;;;;5054612;28;20209;-64
2023/08/26 00:22:18;;;;;;;7.78;4.90;;;22.70;99.90;;;;;;5054676;28;20213;-64
2023/08/26 00:24:45;;;;;;;8.20;4.75;;;22.70;99.90;;;;;;5054694;28;20288;-64
2023/08/26 00:27:12;;;;;;;8.02;4.95;;;22.70;99.90;;;;;;5054073;28;20226;-65
2023/08/26 00:29:41;;;;;;;8.65;4.80;;;22.70;99.90;;;;;;5054275;28;20297;-63
2023/08/26 00:32:08;;;;;;;5.80;4.45;;;22.60;99.90;;;;;;5054366;28;20205;-63
2023/08/26 00:34:34;;;;;;;6.13;5.13;;;22.50;99.90;;;;;;5054053;28;20588;-63
2023/08/26 00:37:01;;;;;;;5.45;4.88;;;22.50;99.90;;;;;;5053646;28;20733;-62
2023/08/26 00:39:28;;;;;;;6.15;5.22;;;22.60;99.90;;;;;;5054164;28;20216;-63
2023/08/26 00:41:55;;;;;;;7.15;4.90;;;22.50;99.90;;;;;;5053892;28;20642;-63
2023/08/26 00:44:22;;;;;;;6.47;5.28;;;22.60;99.90;;;;;;5054100;28;20210;-64
2023/08/26 00:46:50;;;;;;;6.50;5.07;;;22.60;99.90;;;;;;5053717;28;20288;-62
2023/08/26 00:49:18;;;;;;;7.43;4.68;;;22.60;99.90;;;;;;5054025;28;20205;-63
2023/08/26 00:51:46;;;;;;;5.60;4.88;;;22.60;99.90;;;;;;5053954;28;20216;-63
2023/08/26 00:54:13;;;;;;;6.97;4.82;;;22.60;99.90;;;;;;5053960;28;20213;-63
2023/08/26 00:56:40;;;;;;;7.65;4.53;;;22.60;99.90;;;;;;5053673;28;20224;-64
2023/08/26 00:59:07;;;;;;;6.50;4.88;;;22.50;99.90;;;;;;5053165;28;20229;-63
2023/08/26 01:01:34;;;;;;;7.10;4.50;;;22.50;99.90;;;;;;5054105;28;20205;-62
2023/08/26 01:04:03;;;;;;;6.25;4.38;;;22.50;99.90;;;;;;5053787;28;20225;-64
2023/08/26 01:06:30;;;;;;;6.55;4.18;;;22.50;99.90;;;;;;5053384;28;20213;-64
2023/08/26 01:08:57;;;;;;;6.35;4.20;;;22.50;99.90;;;;;;5053634;28;20229;-64
2023/08/26 01:11:29;;;;;;;5.25;4.25;;;22.40;99.90;;;;;;5053544;28;20232;-63
2023/08/26 01:14:05;;;;;;;5.35;4.18;;;22.40;99.90;;;;;;5053734;28;20209;-63
2023/08/26 01:16:34;;;;;;;7.18;5.32;;;22.40;99.90;;;;;;5053344;28;20212;-63
2023/08/26 01:19:03;;;;;;;5.05;4.53;;;22.40;99.90;;;;;;5053291;28;20230;-64
2023/08/26 01:21:34;;;;;;;12.13;4.93;;;22.40;99.90;;;;;;5053592;28;20213;-64
2023/08/26 01:24:03;;;;;;;7.78;4.85;;;22.40;99.90;;;;;;5053567;28;20213;-64
2023/08/26 01:26:30;;;;;;;7.65;4.90;;;22.40;99.90;;;;;;5053186;28;20292;-64
2023/08/26 01:28:57;;;;;;;7.65;4.63;;;22.40;99.90;;;;;;5053115;28;20225;-64
2023/08/26 01:31:31;;;;;;;6.40;4.50;;;22.30;99.90;;;;;;5053265;28;20251;-64
2023/08/26 01:34:03;;;;;;;6.90;4.50;;;22.30;99.90;;;;;;5053334;28;20217;-64
2023/08/26 01:36:35;;;;;;;7.30;4.03;;;22.20;99.90;;;;;;5052731;28;20692;-64
2023/08/26 01:39:04;;;;;;;8.20;5.07;;;22.10;99.90;;;;;;5053092;28;20291;-63
2023/08/26 01:41:32;;;;;;;8.68;5.00;;;22.00;99.90;;;;;;5053020;28;20245;-64
2023/08/26 01:44:00;;;;;;;8.90;4.35;;;21.90;99.90;;;;;;5052894;28;20213;-65
2023/08/26 01:46:37;;;;;;;5.10;4.03;;;21.80;99.90;;;;;;5052960;28;20216;-63
2023/08/26 01:49:04;;;;;;;6.40;4.47;;;21.70;99.90;;;;;;5053042;28;20276;-64
2023/08/26 01:51:31;;;;;;;6.82;4.40;;;21.50;99.90;;;;;;5053096;28;20213;-63
2023/08/26 01:53:57;;;;;;;5.43;4.20;;;21.40;99.90;;;;;;5052839;28;20202;-65
2023/08/26 01:56:26;;;;;;;4.53;3.78;;;21.40;99.90;;;;;;5052817;28;20662;-64
2023/08/26 01:58:52;;;;;;;4.55;3.45;;;21.40;99.90;;;;;;5052542;28;20236;-65
2023/08/26 02:01:19;;;;;;;5.15;3.03;;;21.30;99.90;;;;;;5052899;28;20296;-64
2023/08/26 02:03:46;;;;;;;5.50;3.03;;;21.20;99.90;;;;;;5052732;28;20270;-64
2023/08/26 02:06:13;;;;;;;3.22;2.90;;;21.20;99.90;;;;;;5052817;28;20287;-64
2023/08/26 02:08:40;;;;;;;3.40;2.83;;;21.20;99.90;;;;;;5052944;28;20248;-65
2023/08/26 02:11:06;;;;;;;6.50;3.20;;;21.30;99.90;;;;;;5052084;28;20682;-64
2023/08/26 02:13:34;;;;;;;3.85;3.20;;;21.30;99.90;;;;;;5052784;28;20208;-64
2023/08/26 02:16:01;;;;;;;3.15;2.85;;;21.30;99.90;;;;;;5052955;28;20205;-64
2023/08/26 02:18:28;;;;;;;3.45;2.75;;;21.40;99.90;;;;;;5052597;28;20317;-65
2023/08/26 02:20:55;;;;;;;4.15;2.80;;;21.40;99.90;;;;;;5052536;28;20559;-65
2023/08/26 02:23:22;;;;;;;4.45;2.80;;;21.40;99.90;;;;;;5052246;28;20261;-64
2023/08/26 02:25:48;;;;;;;3.13;2.60;;;21.40;99.90;;;;;;5051795;28;20216;-65
2023/08/26 02:28:15;;;;;;;2.78;1.98;;;21.40;99.90;;;;;;5052570;28;20229;-64
2023/08/26 02:30:43;;;;;;;3.53;2.22;;;21.40;99.90;;;;;;5052176;28;20586;-64
2023/08/26 02:33:10;;;;;;;2.70;2.35;;;21.40;99.90;;;;;;5052325;28;20221;-64
2023/08/26 02:35:36;;;;;;;2.20;2.00;;;21.40;99.90;;;;;;5052072;28;20201;-65
2023/08/26 02:38:04;;;;;;;2.13;1.92;;;21.30;99.90;;;;;;5051978;28;20236;-64
2023/08/26 02:40:30;;;;;;;2.75;2.50;;;21.30;99.90;;;;;;5052495;28;20250;-64
2023/08/26 02:42:57;;;;;;;3.40;2.28;;;21.30;99.90;;;;;;5052069;28;20206;-65
2023/08/26 02:45:24;;;;;;;3.85;2.30;;;21.40;99.90;;;;;;5051782;28;20661;-64
2023/08/26 02:47:52;;;;;;;4.80;2.28;;;21.40;99.90;;;;;;5051539;28;20627;-63
2023/08/26 02:50:18;;;;;;;2.35;2.00;;;21.40;99.90;;;;;;5052094;28;20205;-64
2023/08/26 02:52:45;;;;;;;2.80;2.00;;;21.50;99.90;;;;;;5051560;28;20209;-64
2023/08/26 02:55:12;;;;;;;4.63;2.45;;;21.60;99.90;;;;;;5051818;28;20248;-64
2023/08/26 02:57:40;;;;;;;2.33;2.03;;;21.60;99.90;;;;;;5051266;28;20697;-64
2023/08/26 03:00:08;;;;;;;3.08;1.77;;;21.60;99.90;;;;;;5051828;28;20221;-65
2023/08/26 03:02:35;;;;;;;3.53;1.88;;;21.60;99.90;;;;;;5051785;28;20296;-64
2023/08/26 03:05:03;;;;;;;2.30;1.67;;;21.50;99.90;;;;;;5051416;28;20206;-64
2023/08/26 03:07:31;;;;;;;4.85;2.08;;;21.50;99.90;;;;;;5051129;28;20731;-65
2023/08/26 03:09:58;;;;;;;2.80;2.15;;;21.50;99.90;;;;;;5051562;28;20206;-65
2023/08/26 03:12:24;;;;;;;2.47;2.10;;;21.40;99.90;;;;;;5051651;28;20216;-65
2023/08/26 03:14:52;;;;;;;2.20;2.00;;;21.30;99.90;;;;;;5051557;28;20201;-65
2023/08/26 03:17:19;;;;;;;2.72;2.20;;;21.30;99.90;;;;;;5051051;28;20260;-64
2023/08/26 03:19:46;;;;;;;2.17;1.98;;;21.20;99.90;;;;;;5051332;28;20229;-65
2023/08/26 03:22:14;;;;;;;4.72;1.80;;;21.10;99.90;;;;;;5050979;28;20217;-64
2023/08/26 03:24:40;;;;;;;5.22;2.10;;;21.10;99.90;;;;;;5051383;28;20212;-64
2023/08/26 03:27:07;;;;;;;2.58;2.38;;;21.20;99.90;;;;;;5051133;28;20209;-64
2023/08/26 03:29:34;;;;;;;4.20;2.28;;;21.20;99.90;;;;;;5051262;28;20665;-65
2023/08/26 03:32:01;;;;;;;2.95;2.40;;;21.30;99.90;;;;;;5051207;28;20216;-64
2023/08/26 03:34:27;;;;;;;5.63;2.85;;;21.30;99.90;;;;;;5051401;28;20237;-65
2023/08/26 03:36:54;;;;;;;4.53;2.50;;;21.30;99.90;;;;;;5050875;28;20205;-65
2023/08/26 03:39:22;;;;;;;3.42;2.70;;;21.20;99.90;;;;;;5051315;28;20225;-64
2023/08/26 03:41:49;;;;;;;3.83;2.60;;;21.20;99.90;;;;;;5051267;28;20209;-64
2023/08/26 03:44:16;;;;;;;2.88;2.60;;;21.20;99.90;;;;;;5051092;28;20206;-64
2023/08/26 03:46:43;;;;;;;3.05;2.75;;;21.20;99.90;;;;;;5050907;28;20673;-64
2023/08/26 03:49:10;;;;;;;3.65;2.67;;;21.20;99.90;;;;;;5050862;28;20237;-64
2023/08/26 03:51:36;;;;;;;2.95;2.58;;;21.20;99.90;;;;;;5051404;28;20232;-65
2023/08/26 03:54:03;;;;;;;4.57;2.95;;;21.10;99.90;;;;;;5050798;28;20263;-64
2023/08/26 03:56:31;;;;;;;4.05;3.15;;;21.00;99.90;;;;;;5050692;28;20216;-64
2023/08/26 03:58:58;;;;;;;4.70;3.20;;;21.00;99.90;;;;;;5050863;28;20221;-64
2023/08/26 04:01:25;;;;;;;4.45;3.42;;;20.90;99.90;;;;;;5050715;28;20255;-65
2023/08/26 04:03:52;;;;;;;6.10;3.60;;;20.80;99.90;;;;;;5050785;28;20249;-64
2023/08/26 04:06:19;;;;;;;5.63;3.33;;;20.80;99.90;;;;;;5050872;28;20426;-63
2023/08/26 04:08:46;;;;;;;5.43;3.17;;;20.80;99.90;;;;;;5050892;28;20226;-64
2023/08/26 04:11:15;;;;;;;7.00;3.33;;;20.70;99.90;;;;;;5050814;28;20293;-67
2023/08/26 04:13:43;;;;;;;7.82;3.35;;;20.70;99.90;;;;;;5050645;28;20213;-64
2023/08/26 04:16:09;;;;;;;6.07;3.70;;;20.70;99.90;;;;;;5050466;28;20212;-64
2023/08/26 04:18:36;;;;;;;5.93;4.10;;;20.70;99.90;;;;;;5050840;28;20233;-63
2023/08/26 04:21:03;;;;;;;4.68;2.97;;;20.70;99.90;;;;;;5050889;28;20205;-64
2023/08/26 04:23:30;;;;;;;5.53;3.38;;;20.80;99.90;;;;;;5050722;28;20209;-64
2023/08/26 04:25:59;;;;;;;7.00;3.40;;;20.80;99.90;;;;;;5050340;28;20241;-63
2023/08/26 04:28:26;;;;;;;4.35;3.63;;;20.90;99.90;;;;;;5050785;28;20249;-64
2023/08/26 04:30:54;;;;;;;5.25;3.60;;;21.00;99.90;;;;;;5050480;28;20210;-64
2023/08/26 04:33:21;;;;;;;6.28;3.78;;;21.10;99.90;;;;;;5051850;28;20205;-64
2023/08/26 04:35:48;;;;;;;7.35;3.83;;;21.20;99.90;;;;;;5054298;28;20212;-64
2023/08/26 04:38:15;;;;;;;5.60;3.60;;;21.30;99.90;;;;;;5054484;28;20287;-64
2023/08/26 04:40:42;;;;;;;4.97;3.75;;;21.30;99.90;;;;;;5054303;28;20243;-64
2023/08/26 04:43:10;;;;;;;4.68;3.25;;;21.30;99.90;;;;;;5054294;28;20241;-65
2023/08/26 04:45:37;;;;;;;5.78;3.75;;;21.30;99.90;;;;;;5054289;28;20297;-65
2023/08/26 04:48:06;;;;;;;6.03;3.08;;;21.30;99.90;;;;;;5053875;28;20237;-64
2023/08/26 04:50:33;;;;;;;7.38;3.63;;;21.30;99.90;;;;;;5054023;28;20202;-65
2023/08/26 04:53:00;;;;;;;5.20;3.38;;;21.40;99.90;;;;;;5054000;28;20624;-65
2023/08/26 04:55:26;;;;;;;4.20;3.58;;;21.40;99.90;;;;;;5053957;28;20231;-65
2023/08/26 04:57:53;;;;;;;6.43;3.17;;;21.50;99.90;;;;;;5053514;28;20225;-64
2023/08/26 05:00:20;;;;;;;7.40;3.70;;;21.50;99.90;;;;;;5054107;28;20320;-64
2023/08/26 05:02:47;;;;;;;5.45;3.70;;;21.60;99.90;;;;;;5054257;28;20209;-63
2023/08/26 05:05:15;;;;;;;7.30;5.25;;;21.60;99.90;;;;;;5053804;28;20201;-62
2023/08/26 05:07:42;;;;;;;4.95;4.13;;;21.60;99.90;;;;;;5053769;28;20253;-61
2023/08/26 05:10:09;;;;;;;7.68;4.68;;;21.70;99.90;;;;;;5053680;28;20628;-61
2023/08/26 05:12:36;;;;;;;6.63;3.50;;;21.70;99.90;;;;;;5053728;28;20206;-61
2023/08/26 05:15:04;;;;;;;5.25;3.67;;;21.70;99.90;;;;;;5053551;28;20235;-61
2023/08/26 05:17:31;;;;;;;4.20;3.80;;;21.60;99.90;;;;;;5053300;28;20248;-61
2023/08/26 05:19:58;;;;;;;5.53;3.25;;;21.60;99.90;;;;;;5053256;28;20233;-61
2023/08/26 05:22:26;;;;;;;4.97;3.15;;;21.70;99.90;;;;;;5053439;28;20284;-61
2023/08/26 05:24:52;;;;;;;4.68;3.45;;;21.70;99.90;;;;;;5053629;28;20213;-61
2023/08/26 05:27:22;;;;;;;7.78;3.28;;;21.80;99.90;;;;;;5053167;28;20232;-61
2023/08/26 05:29:49;;;;;;;4.82;3.90;;;21.80;99.90;;;;;;5053377;28;20212;-61
2023/08/26 05:32:16;;;;;;;7.05;4.28;;;21.80;99.90;;;;;;5053510;28;20205;-61
2023/08/26 05:34:42;;;;;;;5.28;4.63;;;21.80;99.90;;;;;;5053321;28;20205;-62
2023/08/26 05:37:09;;;;;;;5.60;4.47;;;21.90;99.90;;;;;;5053369;28;20229;-61
2023/08/26 05:39:37;;;;;;;4.85;3.45;;;21.90;99.90;;;;;;5052833;28;20229;-63
2023/08/26 05:42:04;;;;;;;9.38;3.72;;;22.00;99.90;;;;;;5053238;28;20213;-61
2023/08/26 05:44:30;;;;;;;9.13;4.05;;;22.00;99.90;;;;;;5053023;28;20210;-62
2023/08/26 05:46:57;;;;;;;7.70;3.83;;;22.10;99.90;;;;;;5052418;28;20575;-63
2023/08/26 05:49:24;;;;;;;6.20;3.90;;;22.20;99.90;;;;;;5053766;28;20190;-64
2023/08/26 05:51:50;;;;;;;6.38;3.60;;;22.30;99.90;;;;;;5052769;28;20213;-63
2023/08/26 05:54:17;;;;;;;7.78;4.07;;;22.50;99.90;;;;;;5054945;28;20213;-62
2023/08/26 05:56:45;;;;;;;7.80;4.05;;;22.70;99.90;;;;;;5055380;28;20213;-62
2023/08/26 05:59:12;;;;;;;5.63;4.25;;;23.00;99.90;;;;;;5055534;28;20232;-62
2023/08/26 06:01:39;;;;;;;5.07;3.30;;;23.70;99.90;;;;;;5057173;28;20603;-64
2023/08/26 06:04:06;;;;;;;4.70;2.90;;;24.90;99.90;;;;;;5057545;28;20213;-63
2023/08/26 06:06:33;;;;;;;5.53;3.65;;;25.90;99.90;;;;;;5054527;28;20205;-64
2023/08/26 06:09:00;;;;;;;8.35;3.38;;;26.80;99.90;;;;;;5053707;28;20258;-64
2023/08/26 06:11:27;;;;;;;4.65;3.03;;;27.80;99.90;;;;;;5053166;28;20209;-64
2023/08/26 06:13:55;;;;;;;6.53;3.03;;;28.90;99.90;;;;;;5053055;28;20244;-64
2023/08/26 06:16:21;;;;;;;5.32;2.97;;;29.70;99.90;;;;;;5052496;28;20206;-62
2023/08/26 06:18:48;;;;;;;6.15;3.10;;;29.50;99.90;;;;;;5052145;28;20780;-62
2023/08/26 06:21:15;;;;;;;6.57;3.25;;;28.90;99.90;;;;;;5052235;28;20249;-62
2023/08/26 06:23:42;;;;;;;5.50;3.08;;;28.30;99.90;;;;;;5052542;28;20283;-62
2023/08/26 06:26:09;;;;;;;6.95;3.38;;;27.90;99.90;;;;;;5051939;28;20206;-62
2023/08/26 06:28:35;;;;;;;4.97;3.03;;;27.50;99.90;;;;;;5052429;28;20237;-63
2023/08/26 06:31:03;;;;;;;5.78;2.90;;;27.20;99.90;;;;;;5052199;28;20197;-63
2023/08/26 06:33:30;;;;;;;7.03;3.03;;;27.40;99.90;;;;;;5052252;28;20689;-62
2023/08/26 06:35:57;;;;;;;5.30;2.67;;;27.70;99.90;;;;;;5051675;28;20572;-62
2023/08/26 06:38:24;;;;;;;6.65;2.95;;;27.60;99.90;;;;;;5052116;28;20313;-64
2023/08/26 06:40:54;;;;;;;7.13;2.88;;;27.30;99.90;;;;;;5052037;28;20233;-62
2023/08/26 06:43:21;;;;;;;8.10;2.80;;;26.90;99.90;;;;;;5051965;28;20240;-62
2023/08/26 06:45:48;;;;;;;5.70;3.25;;;26.50;99.90;;;;;;5051663;28;20212;-63
2023/08/26 06:48:16;;;;;;;6.03;2.70;;;26.40;99.90;;;;;;5051494;28;20717;-63
2023/08/26 06:50:48;;;;;;;6.43;2.92;;;26.60;99.90;;;;;;5051543;28;20669;-62
2023/08/26 06:53:20;;;;;;;5.32;2.60;;;26.50;99.90;;;;;;5051980;28;20205;-62
2023/08/26 06:55:47;;;;;;;5.38;3.08;;;26.50;99.90;;;;;;5050901;28;20662;-63
2023/08/26 06:58:14;;;;;;;7.00;3.00;;;26.30;99.90;;;;;;5051634;28;20232;-62
2023/08/26 07:00:41;;;;;;;7.13;3.05;;;25.90;99.90;;;;;;5051414;28;20233;-62
2023/08/26 07:03:08;;;;;;;8.10;4.18;;;25.60;99.90;;;;;;5051608;28;20206;-60
2023/08/26 07:05:36;;;;;;;10.57;6.00;;;25.30;99.90;;;;;;5051632;28;20561;-61
2023/08/26 07:08:03;;;;;;;4.00;3.13;;;25.10;99.90;;;;;;5051318;28;20229;-61
2023/08/26 07:10:30;;;;;;;7.72;3.35;;;25.10;99.90;;;;;;5051374;28;20279;-60
2023/08/26 07:12:57;;;;;;;10.43;6.38;;;25.10;99.90;;;;;;5051198;28;20209;-60
2023/08/26 07:15:23;;;;;;;10.27;3.92;;;25.30;99.90;;;;;;5051269;28;20579;-60
2023/08/26 07:17:50;;;;;;;5.18;2.90;;;25.30;99.90;;;;;;5051037;28;20404;-60
2023/08/26 07:20:17;;;;;;;5.65;2.95;;;25.40;99.90;;;;;;5051332;28;20275;-61
2023/08/26 07:22:46;;;;;;;6.40;2.80;;;25.40;99.90;;;;;;5051410;28;20236;-61
2023/08/26 07:25:13;;;;;;;6.70;3.30;;;25.20;99.90;;;;;;5051421;28;20259;-60
2023/08/26 07:27:40;;;;;;;8.57;5.13;;;25.20;99.90;;;;;;5051061;28;20229;-61
2023/08/26 07:30:08;;;;;;;6.75;4.60;;;25.30;99.90;;;;;;5051194;28;20335;-60
2023/08/26 07:32:35;;;;;;;5.18;3.30;;;25.00;99.90;;;;;;5051432;28;20205;-60
2023/08/26 07:35:02;;;;;;;9.95;3.30;;;24.80;99.90;;;;;;5051124;28;20213;-60
2023/08/26 07:37:29;;;;;;;7.28;3.40;;;24.40;99.90;;;;;;5050964;28;20252;-60
2023/08/26 07:39:57;;;;;;;5.22;3.30;;;24.20;99.90;;;;;;5051101;28;20691;-60
2023/08/26 07:42:24;;;;;;;8.30;3.35;;;24.10;99.90;;;;;;5051080;28;20201;-60
2023/08/26 07:44:51;;;;;;;5.82;3.75;;;24.30;99.90;;;;;;5051677;28;20209;-60
2023/08/26 07:47:18;;;;;;;8.65;3.40;;;24.40;99.90;;;;;;5051390;28;20233;-62
2023/08/26 07:49:45;;;;;;;5.10;3.28;;;24.80;99.90;;;;;;5051224;28;20828;-61
2023/08/26 07:52:11;;;;;;;8.10;3.00;;;25.70;99.90;;;;;;5051069;28;20225;-62
2023/08/26 07:54:38;;;;;;;4.28;2.90;;;26.00;99.90;;;;;;5051148;28;20632;-62
2023/08/26 07:57:06;;;;;;;7.30;2.83;;;26.40;99.90;;;;;;5050520;28;20579;-62
2023/08/26 07:59:34;;;;;;;6.72;3.40;;;26.40;99.90;;;;;;5051018;28;20228;-62
2023/08/26 08:02:00;;;;;;;7.22;2.95;;;26.50;99.90;;;;;;5050876;28;20267;-63
2023/08/26 08:04:27;;;;;;;11.13;3.35;;;26.50;99.90;;;;;;5050894;28;20205;-62
2023/08/26 08:06:54;;;;;;;5.68;2.92;;;26.30;99.90;;;;;;5050915;28;20209;-62
2023/08/26 08:09:20;;;;;;;6.43;3.05;;;26.00;99.90;;;;;;5054897;28;20205;-62
2023/08/26 08:11:47;;;;;;;5.75;3.15;;;25.80;99.90;;;;;;5054467;28;20208;-62
2023/08/26 08:14:15;;;;;;;10.52;3.88;;;25.80;99.90;;;;;;5054785;28;20210;-63
2023/08/26 08:16:42;;;;;;;5.15;3.10;;;25.90;99.90;;;;;;5054462;28;20578;-62
2023/08/26 08:19:08;;;;;;;10.57;3.80;;;25.90;99.90;;;;;;5054452;28;20308;-62
2023/08/26 08:21:35;;;;;;;3.95;3.10;;;25.60;99.90;;;;;;5054745;28;20232;-62
2023/08/26 08:24:02;;;;;;;5.30;3.22;;;25.20;99.90;;;;;;5054422;28;20206;-62
2023/08/26 08:26:32;;;;;;;6.97;3.40;;;25.30;99.90;;;;;;5054482;28;20210;-62
2023/08/26 08:28:59;;;;;;;5.95;3.28;;;25.50;99.90;;;;;;5054312;28;20316;-62
2023/08/26 08:31:27;;;;;;;4.78;2.72;;;25.50;99.90;;;;;;5054397;28;20205;-63
2023/08/26 08:33:53;;;;;;;4.72;2.78;;;25.40;99.90;;;;;;5054705;28;20224;-62
2023/08/26 08:36:20;;;;;;;7.70;3.42;;;25.20;99.90;;;;;;5053953;28;20206;-61
2023/08/26 08:38:47;;;;;;;8.38;2.92;;;25.20;99.90;;;;;;5054188;28;20221;-62
2023/08/26 08:41:14;;;;;;;7.10;3.15;;;25.10;99.90;;;;;;5053929;28;20624;-62
2023/08/26 08:43:45;;;;;;;4.30;3.33;;;25.20;99.90;;;;;;5054458;28;20582;-62
2023/08/26 08:46:13;;;;;;;5.43;3.45;;;25.20;99.90;;;;;;5051533;28;20464;-62
2023/08/26 08:48:41;;;;;;;4.45;2.90;;;25.20;99.90;;;;;;5053583;28;20237;-62
2023/08/26 08:51:09;;;;;;;4.75;3.00;;;25.00;99.90;;;;;;5052939;28;20202;-63
2023/08/26 08:53:44;;;;;;;7.72;3.63;;;25.00;99.90;;;;;;5053518;28;20580;-62
2023/08/26 08:56:13;;;;;;;6.03;2.72;;;25.00;99.90;;;;;;5052860;28;20201;-65
2023/08/26 08:58:42;;;;;;;6.43;3.20;;;25.10;99.90;;;;;;5053094;28;20635;-65
2023/08/26 09:01:09;;;;;;;5.88;3.00;;;25.20;99.90;;;;;;5052956;28;20303;-66
2023/08/26 09:03:36;;;;;;;5.00;2.90;;;25.40;99.90;;;;;;5052787;28;20205;-66
2023/08/26 09:06:05;;;;;;;6.28;3.28;;;25.80;99.90;;;;;;5052986;28;20213;-66
2023/08/26 09:08:32;;;;;;;5.18;2.95;;;26.30;99.90;;;;;;5052956;28;20233;-65
2023/08/26 09:10:59;;;;;;;5.97;3.33;;;26.60;99.90;;;;;;5052863;28;20205;-64
2023/08/26 09:13:26;;;;;;;4.63;3.22;;;26.90;99.90;;;;;;5052820;28;20232;-64
2023/08/26 09:15:53;;;;;;;28.50;25.25;;;26.70;99.90;;;;;;5052364;28;20641;-63
2023/08/26 09:18:19;;;;;;;5.30;3.25;;;26.50;99.90;;;;;;5052411;28;20604;-64
2023/08/26 09:20:47;;;;;;;8.23;3.15;;;26.70;99.90;;;;;;5051854;28;20232;-64
2023/08/26 09:23:15;;;;;;;3.97;2.85;;;26.70;99.90;;;;;;5052275;28;20201;-64
2023/08/26 09:25:53;;;;;;;5.93;3.00;;;26.80;99.90;;;;;;5052067;28;20288;-63
2023/08/26 09:28:20;;;;;;;5.55;2.83;;;27.00;99.90;;;;;;5052858;28;20229;-63
2023/08/26 09:31:02;;;;;;;5.80;3.65;;;27.00;99.90;;;;;;5051743;28;20209;-64
2023/08/26 09:33:29;;;;;;;7.72;3.10;;;26.80;99.90;;;;;;5052116;28;20239;-63
2023/08/26 09:35:55;;;;;;;6.60;2.88;;;26.70;99.90;;;;;;5051974;28;20611;-63
2023/08/26 09:38:24;;;;;;;6.50;3.13;;;26.60;99.90;;;;;;5052368;28;20269;-64
2023/08/26 09:40:50;;;;;;;9.20;3.22;;;26.70;99.90;;;;;;5052438;28;20248;-64
2023/08/26 09:43:17;;;;;;;6.32;3.25;;;26.80;99.90;;;;;;5052528;28;20217;-63
2023/08/26 09:45:44;;;;;;;5.07;3.28;;;26.80;99.90;;;;;;5052371;28;20723;-63
2023/08/26 09:48:21;;;;;;;6.25;3.17;;;26.50;99.90;;;;;;5052002;28;20229;-63
2023/08/26 09:50:48;;;;;;;11.57;3.20;;;26.20;99.90;;;;;;5052061;28;20215;-63
2023/08/26 09:53:32;;;;;;;7.03;3.38;;;26.30;99.90;;;;;;5051725;28;20214;-63
2023/08/26 09:55:59;;;;;;;5.43;3.03;;;26.60;99.90;;;;;;5051183;28;20729;-63
2023/08/26 09:58:27;;;;;;;6.35;3.33;;;27.10;99.90;;;;;;5051943;28;20888;-64
2023/08/26 10:00:54;;;;;;;5.22;3.00;;;27.60;99.90;;;;;;5051715;28;20226;-64
2023/08/26 10:03:24;;;;;;;9.00;3.22;;;27.80;99.90;;;;;;5051710;28;20209;-64
2023/08/26 10:05:52;;;;;;;6.90;2.70;;;28.00;99.90;;;;;;5051610;28;20275;-64
2023/08/26 10:08:22;;;;;;;5.30;2.60;;;28.40;99.90;;;;;;5050892;28;20260;-64
2023/08/26 10:10:53;;;;;;;4.72;2.60;;;28.70;99.90;;;;;;5051951;28;20229;-65
2023/08/26 10:13:23;;;;;;;10.10;3.22;;;29.00;99.90;;;;;;5047598;28;20201;-68
2023/08/26 10:15:52;;;;;;;5.22;3.00;;;29.00;99.90;;;;;;5051234;28;20200;-64
2023/08/26 10:18:28;;;;;;;8.40;3.17;;;28.90;99.90;;;;;;5049877;28;20226;-64
2023/08/26 10:20:56;;;;;;;7.72;3.13;;;28.60;99.90;;;;;;5051357;28;20252;-65
2023/08/26 10:23:25;;;;;;;6.68;3.03;;;28.20;99.90;;;;;;5051553;28;20241;-66
2023/08/26 10:25:53;;;;;;;3.58;2.53;;;27.90;99.90;;;;;;5051564;28;20270;-64
2023/08/26 10:28:21;;;;;;;5.35;2.90;;;27.90;99.90;;;;;;5051002;28;20229;-66
2023/08/26 10:30:50;;;;;;;5.75;2.72;;;27.70;99.90;;;;;;5050009;28;20202;-65
2023/08/26 10:33:18;;;;;;;5.40;2.60;;;27.30;99.90;;;;;;5050684;28;20201;-66
2023/08/26 10:35:58;;;;;;;7.03;3.05;;;26.80;99.90;;;;;;5051190;28;20215;-66
2023/08/26 10:38:25;;;;;;;4.82;2.42;;;26.40;99.90;;;;;;5051450;28;20623;-67
2023/08/26 10:41:08;;;;;;;6.32;2.60;;;25.90;99.90;;;;;;5051219;28;20308;-63
2023/08/26 10:43:35;;;;;;;4.07;2.25;;;25.70;99.90;;;;;;5051983;28;20202;-63
2023/08/26 10:46:02;;;;;;;7.72;2.50;;;25.50;99.90;;;;;;5052089;28;20205;-62
2023/08/26 10:48:29;;;;;;;5.13;2.75;;;25.40;99.90;;;;;;5051988;28;20240;-63
2023/08/26 10:51:00;;;;;;;6.47;3.30;;;25.60;99.90;;;;;;5051765;28;20198;-64
2023/08/26 10:53:27;;;;;;;2.95;2.15;;;26.10;99.90;;;;;;5051674;28;20205;-62
2023/08/26 10:56:12;;;;;;;4.25;2.28;;;26.40;99.90;;;;;;5051376;28;20681;-62
2023/08/26 10:58:43;;;;;;;6.82;2.53;;;26.60;99.90;;;;;;5051842;28;20272;-62
2023/08/26 11:01:11;;;;;;;7.80;2.65;;;26.70;99.90;;;;;;5051966;28;20253;-62
2023/08/26 11:03:38;;;;;;;7.25;3.08;;;26.90;99.90;;;;;;5051780;28;20210;-62
2023/08/26 11:06:08;;;;;;;4.95;2.58;;;27.00;99.90;;;;;;5051580;28;20233;-62
2023/08/26 11:08:37;;;;;;;5.82;3.22;;;27.10;99.90;;;;;;5051815;28;20226;-63
2023/08/26 11:11:06;;;;;;;10.05;3.80;;;27.00;99.90;;;;;;5052128;28;20232;-62
2023/08/26 11:13:33;;;;;;;5.47;2.78;;;26.80;99.90;;;;;;5052056;28;20205;-62
2023/08/26 11:15:59;;;;;;;5.57;3.97;;;26.60;99.90;;;;;;5051650;28;20221;-62
2023/08/26 11:18:26;;;;;;;9.10;3.03;;;26.50;99.90;;;;;;5051552;28;20266;-62
2023/08/26 11:20:53;;;;;;;5.28;2.50;;;26.20;99.90;;;;;;5051475;28;20229;-62
2023/08/26 11:23:24;;;;;;;8.00;2.83;;;26.20;99.90;;;;;;5051989;28;20225;-62
2023/08/26 11:25:50;;;;;;;5.47;3.17;;;26.40;99.90;;;;;;5051879;28;20204;-63
2023/08/26 11:28:18;;;;;;;5.47;2.28;;;26.60;99.90;;;;;;5051849;28;20241;-63
2023/08/26 11:30:46;;;;;;;5.78;2.60;;;27.00;99.90;;;;;;5051729;28;20230;-63
2023/08/26 11:33:15;;;;;;;6.13;2.60;;;27.40;99.90;;;;;;5051727;28;20513;-63
2023/08/26 11:35:43;;;;;;;4.88;2.60;;;27.40;99.90;;;;;;5050985;28;20673;-62
2023/08/26 11:38:10;;;;;;;3.95;2.63;;;27.50;99.90;;;;;;5051873;28;20225;-63
2023/08/26 11:40:37;;;;;;;6.18;2.45;;;27.40;99.90;;;;;;5051461;28;20206;-62
2023/08/26 11:43:08;;;;;;;4.05;2.50;;;27.70;99.90;;;;;;5055959;28;20209;-66
2023/08/26 11:45:36;;;;;;;3.50;2.50;;;27.70;99.90;;;;;;5058106;28;20201;-62
2023/08/26 11:48:03;;;;;;;6.38;2.33;;;27.30;99.90;;;;;;5058020;28;20241;-64
2023/08/26 11:50:31;;;;;;;5.68;2.17;;;26.90;99.90;;;;;;5058410;28;20213;-62
2023/08/26 11:53:01;;;;;;;8.13;2.63;;;26.70;99.90;;;;;;5058047;28;20213;-63
2023/08/26 11:55:28;;;;;;;7.32;2.70;;;26.70;99.90;;;;;;5059439;28;20292;-63
2023/08/26 11:57:55;;;;;;;6.05;2.70;;;26.70;99.90;;;;;;5058340;28;20229;-63
2023/08/26 12:00:23;;;;;;;5.55;2.53;;;26.70;99.90;;;;;;5058396;28;20205;-61
2023/08/26 12:02:52;;;;;;;5.47;2.40;;;26.70;99.90;;;;;;5058150;28;20264;-62
2023/08/26 12:05:20;;;;;;;6.65;2.55;;;26.50;99.90;;;;;;5058390;28;20209;-62
2023/08/26 12:07:48;;;;;;;4.63;2.35;;;26.50;99.90;;;;;;5058161;28;20231;-62
2023/08/26 12:10:17;;;;;;;5.78;2.47;;;26.40;99.90;;;;;;5058810;28;20227;-62
2023/08/26 12:12:46;;;;;;;5.72;2.20;;;26.30;99.90;;;;;;5058235;28;20202;-62
2023/08/26 12:15:14;;;;;;;5.05;2.63;;;26.10;99.90;;;;;;5058386;28;20232;-63
2023/08/26 12:17:45;;;;;;;6.72;3.00;;;25.90;99.90;;;;;;5057842;28;20229;-63
2023/08/26 12:20:28;;;;;;;4.10;2.22;;;25.80;99.90;;;;;;5058093;28;20684;-63
2023/08/26 12:22:56;;;;;;;5.25;2.15;;;25.70;99.90;;;;;;5057586;28;20229;-62
2023/08/26 12:25:30;;;;;;;5.15;2.55;;;25.50;99.90;;;;;;5057735;28;20209;-62
2023/08/26 12:28:12;;;;;;;6.75;2.55;;;25.30;99.90;;;;;;5057393;28;20226;-62
2023/08/26 12:30:39;;;;;;;6.78;2.70;;;25.00;99.90;;;;;;5058000;28;20266;-63
2023/08/26 12:33:07;;;;;;;11.98;7.88;;;24.80;99.90;;;;;;5057852;28;20202;-64
2023/08/26 12:35:36;;;;;;;4.55;3.08;;;24.80;99.90;;;;;;5057550;28;20596;-62
2023/08/26 12:38:03;;;;;;;5.82;3.13;;;24.70;99.90;;;;;;5057333;28;20225;-63
2023/08/26 12:40:31;;;;;;;5.80;2.90;;;24.70;99.90;;;;;;5057298;28;20719;-63
2023/08/26 12:42:58;;;;;;;8.40;3.33;;;24.60;99.90;;;;;;5057653;28;20229;-64
2023/08/26 12:45:25;;;;;;;5.45;2.67;;;24.50;99.90;;;;;;5057341;28;20556;-63
2023/08/26 12:47:52;;;;;;;5.63;2.90;;;24.30;99.90;;;;;;5057172;28;20244;-63